Terminal Aerodrome Forecast
Issued by NWS Shreveport, LA

Home | Current Version | Previous Version | Text Only | Print | Product List | Glossary On
Versions: 1 2 3 4 5 6 7 8 9 10 11 12 13 14
000
FTUS44 KSHV 301100
TAFTXK
TAF
KTXK 301124Z 3012/3112 VRB03KT P6SM SKC
     FM301800 23005KT P6SM FEW100
     FM310000 27003KT P6SM SKC
     FM310300 30006KT P6SM SKC=

USA.gov is the U.S. government's official web portal to all federal, state and local government web resources and services.